Sidney, Canada
Current Conditions -  °F | °C
As of 9:00 AM on Friday 31 Oct 2014 (Local Time) from CYYJ Reporting Station
Light Rain Light Rain  
Wind Chill: 50°   Ceiling: 5700
Heat Index: 50°   Visibility: 15mi
Dew Point: 48°   Wind: 0mph
Humidity: 94%   Direction: NA
Pressure: 29.74"   Gusts: NA
Location:  48.65°N, 123.42°W
Report Text: CYYJ 311600Z 00000KT 15SM -RA FEW003 FEW010 BKN057 OVC070 10/09 A2974 RMK SF1SC1SC5AC3 SF TR SC TR SLP072
Loading
Personal Weather Stations






























Interactive Weather Map
Tropical Storm Tracking
New forecast layout! Learn more

10-Day Weather Forecast

Advertisements
Track Severe Weather on mobile